createdAt,value
2022-08-28T00:00:39.768Z,101020.97
2022-08-28T00:05:41.752Z,101020.13
2022-08-28T00:10:43.528Z,101021.09
2022-08-28T00:15:45.560Z,101026.50
2022-08-28T00:20:47.663Z,101023.94
2022-08-28T00:25:49.370Z,101034.31
2022-08-28T00:30:52.549Z,101039.69
2022-08-28T00:35:54.842Z,101039.81
2022-08-28T00:40:59.890Z,101031.94
2022-08-28T00:46:02.575Z,101036.34
2022-08-28T00:51:23.220Z,101033.78
2022-08-28T00:56:24.888Z,101038.16
2022-08-28T01:01:26.558Z,101041.63
2022-08-28T01:06:28.252Z,101041.66
2022-08-28T01:11:29.917Z,101030.28
2022-08-28T01:16:33.745Z,101034.69
2022-08-28T01:21:49.437Z,101044.31
2022-08-28T01:26:51.123Z,101047.88
2022-08-28T01:31:52.791Z,101045.22
2022-08-28T01:36:54.468Z,101047.00
2022-08-28T01:41:56.234Z,101040.88
2022-08-28T01:46:58.548Z,101045.25
2022-08-28T01:52:00.672Z,101040.03
2022-08-28T01:57:05.136Z,101049.66
2022-08-28T02:02:06.894Z,101049.66
2022-08-28T02:07:08.604Z,101047.94
2022-08-28T02:12:10.358Z,101047.06
2022-08-28T02:17:12.831Z,101054.06
2022-08-28T02:22:14.520Z,101035.75
2022-08-28T02:27:16.219Z,101040.97
2022-08-28T02:32:18.535Z,101044.50
2022-08-28T02:37:21.470Z,101044.50
2022-08-28T02:42:23.160Z,101042.75
2022-08-28T02:47:24.813Z,101040.13
2022-08-28T02:52:26.972Z,101038.38
2022-08-28T02:57:29.909Z,101048.00
2022-08-28T03:02:31.804Z,101042.78
2022-08-28T03:07:33.554Z,101049.75
2022-08-28T03:12:35.481Z,101041.88
2022-08-28T03:17:37.146Z,101064.63
2022-08-28T03:22:57.261Z,101065.50
2022-08-28T03:27:58.952Z,101068.94
2022-08-28T03:33:01.128Z,101065.44
2022-08-28T03:38:03.127Z,101062.81
2022-08-28T03:43:04.818Z,101068.06
2022-08-28T03:48:08.885Z,101072.44
2022-08-28T03:53:11.068Z,101065.44
2022-08-28T03:58:18.800Z,101074.19
2022-08-28T04:03:21.450Z,101066.31
2022-08-28T04:08:23.444Z,101075.94
2022-08-28T04:13:25.187Z,101083.81
2022-08-28T04:18:27.516Z,101083.84
2022-08-28T04:23:29.719Z,101080.31
2022-08-28T04:28:32.580Z,101090.78
2022-08-28T04:33:34.344Z,101089.03
2022-08-28T04:38:39.276Z,101089.03
2022-08-28T04:43:44.774Z,101082.91
2022-08-28T04:48:46.481Z,101078.53
2022-08-28T04:53:48.157Z,101086.41
2022-08-28T04:58:49.863Z,101084.69
2022-08-28T05:03:57.711Z,101089.06
2022-08-28T05:09:00.642Z,101090.75
2022-08-28T05:14:04.433Z,101095.16
2022-08-28T05:19:06.356Z,101097.78
2022-08-28T05:24:08.791Z,101101.28
2022-08-28T05:29:10.540Z,101097.78
2022-08-28T05:34:12.208Z,101107.47
2022-08-28T05:39:13.887Z,101109.19
2022-08-28T05:44:16.350Z,101110.97
2022-08-28T05:49:18.946Z,101107.47
2022-08-28T05:54:20.612Z,101111.81
2022-08-28T05:59:22.285Z,101126.72
2022-08-28T06:04:26.657Z,101109.22
2022-08-28T06:09:29.921Z,101122.31
2022-08-28T06:14:31.928Z,101127.56
2022-08-28T06:19:37.199Z,101129.28
2022-08-28T06:24:41.109Z,101125.78
2022-08-28T06:29:44.617Z,101129.28
2022-08-28T06:34:46.276Z,101132.72
2022-08-28T06:39:47.940Z,101148.44
2022-08-28T06:44:49.613Z,101145.78
2022-08-28T06:49:51.309Z,101154.50
2022-08-28T06:54:55.444Z,101153.53
2022-08-28T06:59:57.868Z,101150.81
2022-08-28T07:05:00.387Z,101161.94
2022-08-28T07:10:02.066Z,101166.19
2022-08-28T07:15:04.884Z,101172.28
2022-08-28T07:20:07.246Z,101176.59
2022-08-28T07:25:09.341Z,101170.34
2022-08-28T07:30:13.108Z,101179.03
2022-08-28T07:35:16.157Z,101184.19
2022-08-28T07:40:20.109Z,101189.44
2022-08-28T07:45:21.903Z,101185.88
2022-08-28T07:50:23.614Z,101183.97
2022-08-28T07:55:27.544Z,101192.72
2022-08-28T08:00:30.142Z,101185.53
2022-08-28T08:05:31.821Z,101182.84
2022-08-28T08:10:34.283Z,101179.16
2022-08-28T08:15:36.130Z,101186.91
2022-08-28T08:20:38.417Z,101186.91
2022-08-28T08:25:40.132Z,101187.63
2022-08-28T08:30:41.823Z,101186.72
2022-08-28T08:35:43.552Z,101189.31
2022-08-28T08:40:45.531Z,101194.25
2022-08-28T08:45:47.283Z,101179.25
2022-08-28T08:50:48.961Z,101181.72
2022-08-28T08:55:52.140Z,101191.28
2022-08-28T09:00:58.661Z,101178.06
2022-08-28T09:06:02.256Z,101185.91
2022-08-28T09:11:19.677Z,101194.91
2022-08-28T09:16:28.892Z,101190.34
2022-08-28T09:21:35.163Z,101189.31
2022-08-28T09:26:36.854Z,101194.66
2022-08-28T09:31:39.238Z,101194.56
2022-08-28T09:36:40.908Z,101196.06
2022-08-28T09:42:32.670Z,101184.69
2022-08-28T09:47:56.785Z,101187.06
2022-08-28T09:53:09.086Z,101194.81
2022-08-28T09:58:10.761Z,101180.00
2022-08-28T10:03:31.435Z,101186.59
2022-08-28T10:08:50.580Z,101195.22
2022-08-28T10:14:28.622Z,101176.50
2022-08-28T10:19:59.468Z,101181.63
2022-08-28T10:25:28.902Z,101190.19
2022-08-28T10:30:30.825Z,101181.31
2022-08-28T10:35:52.092Z,101193.34
2022-08-28T10:41:03.329Z,101196.69
2022-08-28T10:46:08.674Z,101194.97
2022-08-28T10:51:35.415Z,101183.13
2022-08-28T10:56:56.671Z,101189.53
2022-08-28T11:01:58.563Z,101186.06
2022-08-28T11:07:03.535Z,101178.69
2022-08-28T11:12:07.456Z,101177.63
2022-08-28T11:17:33.438Z,101190.88
2022-08-28T11:22:55.255Z,101194.44
2022-08-28T11:28:36.897Z,101184.47
2022-08-28T11:33:40.705Z,101184.91
2022-08-28T11:38:42.224Z,101176.47
2022-08-28T11:43:44.927Z,101179.75
2022-08-28T11:48:51.689Z,101176.47
2022-08-28T11:54:13.609Z,101174.94
2022-08-28T11:59:35.618Z,101167.91
2022-08-28T12:04:41.761Z,101173.28
2022-08-28T12:09:45.144Z,101171.09
2022-08-28T12:14:46.641Z,101180.31
2022-08-28T12:20:10.778Z,101163.38
2022-08-28T12:25:24.512Z,101153.28
2022-08-28T12:30:44.242Z,101156.28
2022-08-28T12:35:46.105Z,101162.81
2022-08-28T12:40:53.417Z,101149.03
2022-08-28T12:45:56.333Z,101152.19
2022-08-28T12:51:05.805Z,101153.94
2022-08-28T12:56:11.491Z,101149.50
2022-08-28T13:01:32.505Z,101149.00
2022-08-28T13:06:36.530Z,101151.31
2022-08-28T13:11:38.656Z,101144.03
2022-08-28T13:16:42.144Z,101151.50
2022-08-28T13:21:46.548Z,101157.34
2022-08-28T13:26:49.330Z,101149.34
2022-08-28T13:32:00.760Z,101129.94
2022-08-28T13:37:20.245Z,101136.69
2022-08-28T13:42:22.547Z,101142.47
2022-08-28T13:47:25.298Z,101133.66
2022-08-28T13:52:27.164Z,101136.91
2022-08-28T13:57:28.940Z,101132.63
2022-08-28T14:02:48.934Z,101131.84
2022-08-28T14:07:51.004Z,101130.03
2022-08-28T14:12:52.703Z,101121.53
2022-08-28T14:17:54.405Z,101118.16
2022-08-28T14:22:56.127Z,101123.88
2022-08-28T14:27:57.856Z,101137.09
2022-08-28T14:32:59.538Z,101122.66
2022-08-28T14:38:02.414Z,101127.28
2022-08-28T14:43:05.496Z,101139.16
2022-08-28T14:48:07.250Z,101128.53
2022-08-28T14:53:09.670Z,101116.66
2022-08-28T14:58:11.616Z,101113.47
2022-08-28T15:03:13.762Z,101109.31
2022-08-28T15:08:16.241Z,101109.13
2022-08-28T15:13:17.909Z,101109.56
2022-08-28T15:18:23.827Z,101117.94
2022-08-28T15:23:25.516Z,101117.91
2022-08-28T15:28:27.185Z,101122.53
2022-08-28T15:33:28.840Z,101120.56
2022-08-28T15:38:53.334Z,101123.72
2022-08-28T15:44:00.306Z,101115.03
2022-08-28T15:49:03.916Z,101124.84
2022-08-28T15:54:10.337Z,101127.41
2022-08-28T15:59:12.214Z,101132.75
2022-08-28T16:04:15.008Z,101139.41
2022-08-28T16:09:16.674Z,101140.38
2022-08-28T16:14:21.034Z,101140.41
2022-08-28T16:19:22.873Z,101140.19
2022-08-28T16:24:24.542Z,101146.22
2022-08-28T16:29:26.310Z,101158.09
2022-08-28T16:34:31.351Z,101156.91
2022-08-28T16:39:33.336Z,101171.19
2022-08-28T16:44:35.183Z,101166.50
2022-08-28T16:49:36.849Z,101156.94
2022-08-28T16:54:38.537Z,101165.44
2022-08-28T16:59:52.977Z,101168.50
2022-08-28T17:04:55.299Z,101177.50
2022-08-28T17:09:56.968Z,101166.72
2022-08-28T17:14:58.616Z,101160.31
2022-08-28T17:20:00.288Z,101177.81
2022-08-28T17:25:07.652Z,101177.75
2022-08-28T17:30:10.957Z,101178.94
2022-08-28T17:35:12.721Z,101176.50
2022-08-28T17:40:15.697Z,101182.94
2022-08-28T17:45:17.473Z,101181.72
2022-08-28T17:50:19.251Z,101183.97
2022-08-28T17:55:21.080Z,101188.22
2022-08-28T18:00:22.972Z,101186.09
2022-08-28T18:05:24.740Z,101195.06
2022-08-28T18:10:27.633Z,101206.63
2022-08-28T18:15:29.328Z,101204.44
2022-08-28T18:20:31.026Z,101219.16
2022-08-28T18:25:41.693Z,101215.78
2022-08-28T18:30:46.030Z,101225.69
2022-08-28T18:35:49.411Z,101229.66
2022-08-28T18:40:53.427Z,101234.63
2022-08-28T18:45:55.508Z,101244.81
2022-08-28T18:50:57.437Z,101251.34
2022-08-28T18:55:59.139Z,101253.34
2022-08-28T19:01:04.423Z,101261.53
2022-08-28T19:06:06.507Z,101265.13
2022-08-28T19:11:09.488Z,101269.75
2022-08-28T19:16:16.998Z,101269.97
2022-08-28T19:21:19.804Z,101274.59
2022-08-28T19:26:21.527Z,101276.59
2022-08-28T19:31:24.305Z,101281.13
2022-08-28T19:36:27.423Z,101285.63
2022-08-28T19:41:29.817Z,101294.50
2022-08-28T19:46:31.635Z,101292.94
2022-08-28T19:51:34.649Z,101296.56
2022-08-28T19:56:37.281Z,101301.16
2022-08-28T20:01:41.433Z,101311.78
2022-08-28T20:06:44.050Z,101315.38
2022-08-28T20:11:46.879Z,101321.69
2022-08-28T20:16:50.775Z,101318.22
2022-08-28T20:21:52.608Z,101323.53
2022-08-28T20:26:54.312Z,101328.03
2022-08-28T20:31:55.968Z,101329.06
2022-08-28T20:36:57.632Z,101331.75
2022-08-28T20:41:59.319Z,101337.91
2022-08-28T20:47:01.315Z,101337.06
2022-08-28T20:52:03.108Z,101334.47
2022-08-28T20:57:07.786Z,101338.94
2022-08-28T21:02:11.599Z,101341.59
2022-08-28T21:07:14.173Z,101337.25
2022-08-28T21:12:16.589Z,101339.94
2022-08-28T21:17:28.712Z,101346.13
2022-08-28T21:22:32.939Z,101344.41
2022-08-28T21:27:36.444Z,101343.59
2022-08-28T21:32:38.149Z,101346.28
2022-08-28T21:37:40.890Z,101341.91
2022-08-28T21:42:42.657Z,101335.78
2022-08-28T21:47:44.386Z,101339.34
2022-08-28T21:52:46.064Z,101347.25
2022-08-28T21:57:47.721Z,101342.88
2022-08-28T22:02:49.963Z,101344.63
2022-08-28T22:07:51.902Z,101347.31
2022-08-28T22:12:53.571Z,101351.69
2022-08-28T22:17:55.241Z,101348.19
2022-08-28T22:23:11.750Z,101352.56
2022-08-28T22:28:14.239Z,101355.19
2022-08-28T22:33:16.044Z,101362.19
2022-08-28T22:38:18.536Z,101365.72
2022-08-28T22:43:20.350Z,101373.56
2022-08-28T22:48:22.006Z,101367.41
2022-08-28T22:53:23.662Z,101369.16
2022-08-28T22:58:25.359Z,101361.25
2022-08-28T23:03:27.252Z,101366.53
2022-08-28T23:08:33.733Z,101365.63
2022-08-28T23:13:35.763Z,101374.38
2022-08-28T23:19:03.969Z,101364.75
2022-08-28T23:23:59.326Z,101357.72
2022-08-28T23:29:01.030Z,101358.56
2022-08-28T23:34:02.959Z,101352.41
2022-08-28T23:39:06.632Z,101355.03
2022-08-28T23:44:09.173Z,101348.00
2022-08-28T23:49:11.506Z,101345.34
2022-08-28T23:54:13.172Z,101341.88
2022-08-28T23:59:14.827Z,101335.72
